Historyczne dane pomiarowe

Dodano dane terminowe – wersja testowa.

Dane z okresu 1951-2019

Wersja bazy: 1.34 [2019-03-16, lista zmian], aktualizacja planowana na 2019-04-15

Dane meteo z obszaru Polski uzyskane na podstawie danych udostępnionych przez Instytut Meteorologii i Gospodarki Wodnej – Państwowy Instytut Badawczy.

 

Wybierz Datę:    

       

TemperaturaWilgotnośćWiatrCiśnienieOpadyŚniegCzas trwania zjawisk
 Stacja t tx tn tng RH VA  wxwx mslp ppp RRR   cm mm wxwxwxwxwxwxwx
1956-11-09 -6.7 -2.1 -8.4-10.9 84.8- 3.7 0.7---- 0.0-- 6---------
1956-11-08 -4.9 -0.9 -9.5-12.5 85.3- 4.3 0.3---- 0.0-- 6---------
1956-11-07 -4.5 0.0 -8.1 -4.0 82.0- 2.0 1.3---- 0.0-- 6---------
1956-11-06 -0.1 2.1 -0.7 -2.7 88.0- 5.3 5.0---- 1.8-- 1---------
1956-11-05 2.1 6.5 0.4 -0.3 89.0- 7.0 5.0---- 1.5------------
1956-11-04 1.1 3.2 -1.8 -2.6 68.3- 3.7 2.0---- 0.0------------
1956-11-03 0.1 2.4 -1.1 1.2 89.8- 4.0 1.3---- 0.4------------
1956-11-02 0.6 4.8 -2.3 -4.0 86.3- 2.7 1.7---- 0.0------------
1956-11-01 0.9 2.1 -3.1 -1.9 92.0- 8.0 6.0---- 9.4------------
1956-10-31 -4.2 -0.6-11.0 -9.2 72.0- 3.3 2.7---- 0.0------------
1956-10-30 -4.2 -1.1 -6.3 -1.0 79.0- 8.0 6.7---- 0.0------------
1956-10-29 -0.6 5.0 -1.8 0.6 94.5- 8.0 8.3---- 3.8------------
1956-10-28 6.3 8.5 4.6 7.9 95.3- 8.0 5.7---- 13.0------------
1956-10-27 7.4 8.1 6.2 6.5 95.3- 8.0 4.0---- 1.7------------
1956-10-26 7.1 11.6 6.3 7.7 93.0- 8.0 1.0---- 1.8------------
1956-10-25 11.6 15.2 9.1 7.9 82.3- 7.0 3.7---- 2.0------------
1956-10-24 11.2 13.1 8.1 7.7 87.8- 8.0 3.0---- 0.0------------
1956-10-23 9.5 10.9 8.7 9.4 77.5- 8.0 3.3---- 0.0------------
1956-10-22 11.2 13.2 10.5 9.2 75.8- 6.3 6.0---- 0.0------------
1956-10-21 11.9 14.0 8.5 6.8 85.0- 7.3 3.0---- 0.0------------
1956-10-20 8.7 9.8 6.2 4.9 92.8- 8.0 2.3---- 1.7------------
1956-10-19 9.1 12.5 3.9 10.5 90.8- 6.7 2.7---- 1.0------------
1956-10-18 9.2 11.2 4.2 1.8 91.5- 8.0 2.0---- 0.5------------
1956-10-17 6.2 12.1 -0.4 -3.6 78.8- 0.3 2.0---- 0.0------------
1956-10-16 5.2 10.9 1.7 -1.1 88.5- 2.0 0.7---- 0.0------------
1956-10-15 5.2 10.8 3.2 1.2 82.8- 1.7 2.3---- 0.0------------
1956-10-14 6.6 10.4 5.4 3.5 79.0- 3.0 6.3---- 0.0------------
1956-10-13 9.4 11.4 8.6 6.9 80.8- 7.3 9.3---- 20.0------------
1956-10-12 9.5 10.9 8.8 3.0 85.8- 8.0 4.0---- 0.0------------
1956-10-11 7.9 10.6 5.3 3.2 92.3- 7.3 5.7---- 0.0------------
1956-10-10 5.5 9.7 -1.9 -6.6 72.8- 4.7 2.7---- 0.1------------
1956-10-09 4.1 7.8 2.7 1.2 87.3- 4.7 3.7---- 0.7------------
1956-10-08 4.3 6.5 3.6 1.8 92.5- 4.3 2.3---- 8.8------------
1956-10-07 6.4 7.9 5.2 4.5 91.5- 6.3 7.3---- 15.3------------
1956-10-06 6.1 9.4 2.8 -0.4 88.0- 8.0 3.0---- 28.8------------
1956-10-05 7.8 10.7 6.5 8.0 92.3- 8.0 1.3---- 2.2------------
1956-10-04 9.7 14.2 4.7 1.7 89.5- 4.7 2.3---- 3.9------------
1956-10-03 12.4 16.4 9.9 7.8 86.3- 6.7 6.0---- 1.6------------
1956-10-02 16.5 23.7 9.9 7.1 79.5- 4.0 3.3---- 1.1------------
1956-10-01 13.2 18.7 7.0 4.3 88.0- 3.3 1.3---- 1.5------------
1956-09-30 11.8 17.0 9.6 7.4 85.0- 2.7 5.0---- 0.0------------
1956-09-29 14.7 18.5 12.4 13.0 78.0- 2.7 7.0---- 0.0------------
1956-09-28 14.3 16.7 10.9 6.6 84.3- 8.0 4.0---- 0.0------------
1956-09-27 15.0 22.2 7.7 2.4 73.8- 0.3 2.7---- 0.0------------
1956-09-26 13.7 22.1 4.2 -0.8 74.3- 0.0 1.3---- 0.0------------
1956-09-25 10.0 17.5 1.9 -3.7 70.8- 0.3 1.0---- 0.0------------
1956-09-24 7.1 13.8 2.4 -1.1 71.3- 0.0 1.3---- 0.0------------
1956-09-23 8.3 14.4 4.0 -0.4 72.8- 2.7 1.7---- 0.0------------
1956-09-22 10.4 17.6 4.0 0.5 84.5- 2.3 2.0---- 0.0------------
1956-09-21 9.1 16.7 1.9 -0.4 83.0- 0.7 0.3---- 0.0------------
1956-09-20 10.1 16.7 5.4 0.9 80.0- 4.3 1.3---- 0.0------------
1956-09-19 8.0 14.8 3.1 -0.1 87.8- 2.7 1.7---- 0.0------------
1956-09-18 7.5 14.0 2.9 -0.7 84.0- 1.3 2.3---- 0.0------------
1956-09-17 7.9 12.5 5.2 4.3 85.0- 4.3 7.0---- 1.3------------
1956-09-16 9.5 13.7 6.0 3.9 85.3- 6.7 6.7---- 1.6------------
1956-09-15 10.3 15.5 7.9 4.1 73.3- 4.0 5.3---- 0.0------------
1956-09-14 9.4 15.0 6.8 5.5 88.5- 5.3 1.3---- 0.4------------
1956-09-13 9.2 13.8 6.2 4.6 85.0- 4.0 3.7---- 0.0------------
1956-09-12 10.9 15.3 8.8 7.1 82.8- 4.7 4.0---- 6.2------------
1956-09-11 12.7 16.6 9.5 7.1 92.3- 4.3 0.7---- 3.8------------
232.3 ms

 

Źródłem pochodzenia danych jest Instytut Meteorologii i Gospodarki Wodnej – Państwowy Instytut Badawczy. Dane Instytutu Meteorologii i Gospodarki Wodnej – Państwowego Instytutu Badawczego zostały przetworzone.

Dane źródłowe można odnaleźć na stronie https://dane.imgw.pl